createdAt,value
2018-03-16T00:00:00.403Z,82.93
2018-03-16T00:01:00.340Z,83.03
2018-03-16T00:02:00.342Z,83.12
2018-03-16T00:03:00.348Z,83.17
2018-03-16T00:04:00.343Z,82.79
2018-03-16T00:05:00.353Z,83.17
2018-03-16T00:06:00.370Z,83.17
2018-03-16T00:07:00.362Z,83.27
2018-03-16T00:08:00.288Z,82.89
2018-03-16T00:09:00.276Z,83.17
2018-03-16T00:10:00.285Z,83.84
2018-03-16T00:11:00.288Z,83.46
2018-03-16T00:12:00.291Z,83.36
2018-03-16T00:13:00.302Z,83.17
2018-03-16T00:14:00.307Z,83.17
2018-03-16T00:15:00.229Z,83.84
2018-03-16T00:16:00.224Z,83.55
2018-03-16T00:17:00.205Z,83.36
2018-03-16T00:18:00.225Z,83.27
2018-03-16T00:19:00.234Z,83.74
2018-03-16T00:20:00.191Z,83.55
2018-03-16T00:21:00.245Z,83.36
2018-03-16T00:22:00.177Z,83.55
2018-03-16T00:23:00.167Z,83.65
2018-03-16T00:24:00.168Z,83.42
2018-03-16T00:25:00.207Z,83.51
2018-03-16T00:26:00.185Z,83.98
2018-03-16T00:27:00.188Z,83.89
2018-03-16T00:28:00.199Z,83.70
2018-03-16T00:29:00.124Z,83.70
2018-03-16T00:30:00.118Z,83.80
2018-03-16T00:31:00.111Z,83.89
2018-03-16T00:32:00.125Z,83.70
2018-03-16T00:33:00.128Z,83.80
2018-03-16T00:34:00.130Z,83.89
2018-03-16T00:35:00.065Z,83.89
2018-03-16T00:36:00.058Z,83.61
2018-03-16T00:37:00.050Z,83.80
2018-03-16T00:38:00.058Z,83.98
2018-03-16T00:39:00.027Z,84.27
2018-03-16T00:40:00.082Z,83.61
2018-03-16T00:41:00.081Z,83.89
2018-03-16T00:42:00.085Z,83.80
2018-03-16T00:42:59.994Z,83.80
2018-03-16T00:44:00.010Z,83.89
2018-03-16T00:45:00.011Z,83.70
2018-03-16T00:45:59.998Z,84.08
2018-03-16T00:46:59.957Z,84.46
2018-03-16T00:47:59.946Z,83.98
2018-03-16T00:49:00.023Z,83.89
2018-03-16T00:49:59.962Z,84.46
2018-03-16T00:50:59.938Z,84.36
2018-03-16T00:51:59.922Z,84.65
2018-03-16T00:52:59.947Z,84.94
2018-03-16T00:53:59.896Z,84.94
2018-03-16T00:54:59.951Z,84.99
2018-03-16T00:55:59.880Z,84.89
2018-03-16T00:56:59.877Z,84.80
2018-03-16T00:57:59.882Z,84.70
2018-03-16T00:58:59.881Z,84.80
2018-03-16T00:59:59.896Z,85.27
2018-03-16T01:00:59.898Z,84.80
2018-03-16T01:01:59.903Z,85.27
2018-03-16T01:03:00.535Z,85.46
2018-03-16T01:03:59.840Z,85.27
2018-03-16T01:04:59.830Z,85.17
2018-03-16T01:05:59.838Z,85.93
2018-03-16T01:06:59.843Z,85.84
2018-03-16T01:07:59.820Z,85.08
2018-03-16T01:08:59.758Z,85.93
2018-03-16T01:09:59.765Z,86.03
2018-03-16T01:10:59.785Z,85.99
2018-03-16T01:12:00.500Z,86.22
2018-03-16T01:12:59.746Z,85.80
2018-03-16T01:13:59.789Z,85.80
2018-03-16T01:14:59.808Z,85.99
2018-03-16T01:15:59.696Z,86.08
2018-03-16T01:16:59.713Z,85.99
2018-03-16T01:17:59.712Z,86.36
2018-03-16T01:18:59.676Z,86.18
2018-03-16T01:19:59.728Z,86.18
2018-03-16T01:20:59.736Z,86.93
2018-03-16T01:21:59.643Z,86.55
2018-03-16T01:22:59.643Z,86.65
2018-03-16T01:23:59.687Z,87.02
2018-03-16T01:24:59.666Z,86.74
2018-03-16T01:25:59.666Z,87.31
2018-03-16T01:26:59.657Z,87.12
2018-03-16T01:27:59.672Z,87.40
2018-03-16T01:28:59.603Z,87.88
2018-03-16T01:29:59.575Z,87.50
2018-03-16T01:30:59.560Z,87.78
2018-03-16T01:31:59.606Z,87.59
2018-03-16T01:32:59.583Z,87.69
2018-03-16T01:33:59.616Z,87.98
2018-03-16T02:06:09.099Z,87.54
2018-03-16T02:07:09.058Z,86.65
2018-03-16T02:09:01.955Z,86.27
2018-03-16T02:10:01.930Z,86.18
2018-03-16T02:11:54.819Z,85.70
2018-03-16T02:12:54.831Z,85.80
2018-03-16T02:14:47.753Z,86.18
2018-03-16T02:15:47.732Z,86.36
2018-03-16T02:17:40.632Z,86.74
2018-03-16T02:18:40.599Z,86.74
2018-03-16T02:20:33.553Z,86.65
2018-03-16T02:21:33.520Z,86.18
2018-03-16T02:23:26.424Z,85.70
2018-03-16T02:24:26.401Z,85.80
2018-03-16T02:26:19.376Z,85.89
2018-03-16T02:27:19.349Z,85.66
2018-03-16T02:29:12.233Z,85.89
2018-03-16T02:30:12.210Z,86.32
2018-03-16T02:32:05.124Z,86.70
2018-03-16T02:33:05.089Z,86.89
2018-03-16T02:34:59.043Z,86.51
2018-03-16T02:35:59.012Z,86.70
2018-03-16T02:37:51.917Z,86.98
2018-03-16T02:38:51.952Z,87.36
2018-03-16T02:40:44.850Z,87.74
2018-03-16T02:41:44.902Z,87.84
2018-03-16T02:43:37.711Z,87.65
2018-03-16T02:44:37.690Z,87.93
2018-03-16T02:46:30.678Z,88.21
2018-03-16T02:47:30.655Z,89.06
2018-03-16T02:49:23.536Z,88.68
2018-03-16T02:50:23.513Z,88.35
2018-03-16T02:52:16.431Z,88.92
2018-03-16T02:53:16.404Z,88.92
2018-03-16T02:55:09.308Z,89.11
2018-03-16T02:56:09.292Z,88.73
2018-03-16T02:58:02.315Z,88.73
2018-03-16T02:59:02.262Z,88.82
2018-03-16T03:00:55.241Z,88.73
2018-03-16T03:01:55.200Z,88.64
2018-03-16T03:03:48.095Z,88.73
2018-03-16T03:04:48.088Z,88.82
2018-03-16T03:06:41.081Z,88.73
2018-03-16T03:07:41.029Z,88.82
2018-03-16T03:09:33.993Z,88.73
2018-03-16T03:10:33.967Z,88.73
2018-03-16T03:12:26.862Z,88.26
2018-03-16T03:13:26.841Z,88.17
2018-03-16T03:15:19.728Z,87.98
2018-03-16T03:16:19.702Z,88.17
2018-03-16T03:18:12.609Z,87.69
2018-03-16T03:19:12.581Z,87.98
2018-03-16T03:21:05.507Z,87.40
2018-03-16T03:22:05.467Z,86.74
2018-03-16T03:23:58.364Z,87.31
2018-03-16T03:24:58.367Z,87.40
2018-03-16T03:26:51.310Z,87.21
2018-03-16T03:27:51.279Z,87.21
2018-03-16T03:29:44.165Z,87.59
2018-03-16T03:30:44.151Z,87.31
2018-03-16T03:32:37.117Z,87.78
2018-03-16T03:33:37.072Z,88.26
2018-03-16T03:35:29.966Z,87.69
2018-03-16T03:36:29.949Z,87.69
2018-03-16T03:38:22.919Z,87.31
2018-03-16T03:39:22.884Z,87.55
2018-03-16T03:41:15.792Z,87.55
2018-03-16T03:42:15.809Z,87.36
2018-03-16T03:44:08.802Z,87.65
2018-03-16T03:45:08.671Z,87.17
2018-03-16T03:47:01.589Z,88.40
2018-03-16T03:48:01.564Z,88.87
2018-03-16T03:49:54.487Z,89.54
2018-03-16T03:50:54.469Z,89.35
2018-03-16T03:52:47.378Z,89.25
2018-03-16T03:53:47.350Z,88.78
2018-03-16T03:55:40.295Z,89.35
2018-03-16T03:56:40.227Z,89.35
2018-03-16T03:58:33.195Z,89.25
2018-03-16T03:59:33.164Z,89.73
2018-03-16T04:01:26.086Z,89.44
2018-03-16T04:02:26.038Z,89.35
2018-03-16T04:04:18.985Z,88.97
2018-03-16T04:05:18.969Z,89.16
2018-03-16T04:07:11.866Z,89.16
2018-03-16T04:08:11.836Z,89.16
2018-03-16T04:10:04.794Z,89.21
2018-03-16T04:11:04.789Z,89.12
2018-03-16T04:12:57.756Z,89.78
2018-03-16T04:13:57.728Z,89.78
2018-03-16T04:15:50.616Z,90.25
2018-03-16T04:16:50.598Z,89.87
2018-03-16T04:18:43.513Z,90.06
2018-03-16T04:19:43.488Z,89.69
2018-03-16T04:21:36.402Z,89.97
2018-03-16T04:22:36.387Z,90.34
2018-03-16T04:23:36.376Z,90.16
2018-03-16T04:24:36.364Z,90.44
2018-03-16T04:25:36.356Z,90.44
2018-03-16T04:26:36.333Z,90.44
2018-03-16T04:27:36.347Z,90.25
2018-03-16T04:28:36.330Z,90.53
2018-03-16T04:29:36.312Z,90.06
2018-03-16T04:30:36.301Z,90.16
2018-03-16T04:31:36.292Z,90.16
2018-03-16T04:32:36.284Z,90.72
2018-03-16T04:33:36.270Z,91.01
2018-03-16T04:34:36.251Z,90.82
2018-03-16T04:35:36.252Z,90.53
2018-03-16T04:36:36.235Z,91.29
2018-03-16T04:37:36.226Z,91.20
2018-03-16T04:38:36.244Z,91.20
2018-03-16T04:39:36.206Z,91.39
2018-03-16T04:40:36.261Z,91.20
2018-03-16T04:41:36.254Z,91.29
2018-03-16T04:42:36.191Z,91.43
2018-03-16T04:43:36.168Z,92.19
2018-03-16T04:44:36.154Z,92.00
2018-03-16T04:45:36.143Z,92.00
2018-03-16T04:46:36.134Z,91.91
2018-03-16T04:47:36.198Z,92.29
2018-03-16T04:48:36.128Z,92.00
2018-03-16T04:49:36.112Z,91.91
2018-03-16T04:50:36.121Z,92.47
2018-03-16T04:51:36.128Z,91.91
2018-03-16T04:52:36.130Z,92.38
2018-03-16T04:53:36.141Z,92.10
2018-03-16T04:54:36.856Z,92.29
2018-03-16T04:55:36.848Z,92.29
2018-03-16T04:56:36.846Z,91.91
2018-03-16T04:57:36.023Z,91.81
2018-03-16T04:58:36.065Z,92.29
2018-03-16T04:59:36.022Z,92.38
2018-03-16T05:00:36.001Z,91.81
2018-03-16T05:01:35.987Z,92.10
2018-03-16T05:02:36.940Z,92.29
2018-03-16T05:03:35.999Z,91.62
2018-03-16T05:04:36.020Z,92.00
2018-03-16T05:05:35.980Z,92.00
2018-03-16T05:06:35.939Z,92.00
2018-03-16T05:07:35.923Z,91.91
2018-03-16T05:08:35.936Z,91.34
2018-03-16T05:09:35.925Z,91.62
2018-03-16T05:10:35.935Z,91.43
2018-03-16T05:11:35.902Z,91.43
2018-03-16T05:12:35.878Z,91.53
2018-03-16T05:13:35.857Z,91.43
2018-03-16T05:14:35.866Z,91.24
2018-03-16T05:15:35.878Z,91.24
2018-03-16T05:16:35.841Z,91.24
2018-03-16T05:17:35.880Z,91.53
2018-03-16T05:18:35.855Z,91.34
2018-03-16T05:19:35.824Z,91.20
2018-03-16T05:20:35.796Z,91.39
2018-03-16T05:21:35.778Z,91.48
2018-03-16T05:22:35.824Z,91.48
2018-03-16T05:23:35.758Z,91.58
2018-03-16T05:24:35.726Z,91.20
2018-03-16T05:25:35.724Z,91.20
2018-03-16T05:26:35.720Z,91.01
2018-03-16T05:27:35.702Z,91.01
2018-03-16T05:28:35.705Z,91.20
2018-03-16T05:29:35.684Z,91.48
2018-03-16T05:30:35.725Z,91.39
2018-03-16T05:31:35.670Z,91.39
2018-03-16T05:32:35.640Z,91.67
2018-03-16T05:33:35.631Z,91.20
2018-03-16T05:34:35.630Z,91.20
2018-03-16T05:35:35.633Z,91.29
2018-03-16T05:36:35.603Z,91.43
2018-03-16T05:37:35.601Z,91.43
2018-03-16T05:38:35.594Z,92.10
2018-03-16T05:39:35.577Z,92.29
2018-03-16T05:40:35.608Z,92.00
2018-03-16T05:41:35.562Z,91.91
2018-03-16T05:42:35.571Z,92.10
2018-03-16T05:43:35.543Z,92.19
2018-03-16T05:44:35.528Z,92.10
2018-03-16T05:45:35.510Z,92.00
2018-03-16T05:46:35.507Z,92.47
2018-03-16T05:47:35.496Z,92.29
2018-03-16T05:48:35.495Z,92.61
2018-03-16T05:49:35.482Z,92.76
2018-03-16T05:50:35.467Z,92.52
2018-03-16T05:51:35.457Z,92.43
2018-03-16T05:52:35.437Z,92.61
2018-03-16T05:53:35.434Z,93.08
2018-03-16T05:54:35.428Z,93.18
2018-03-16T05:55:35.446Z,92.61
2018-03-16T05:56:35.407Z,92.43
2018-03-16T05:57:35.398Z,92.52
2018-03-16T05:58:35.396Z,92.61
2018-03-16T05:59:35.375Z,92.71
2018-03-16T06:00:35.383Z,91.90
2018-03-16T06:01:35.357Z,92.28
2018-03-16T06:02:35.352Z,92.00
2018-03-16T06:03:35.369Z,91.52
2018-03-16T06:04:35.331Z,91.33
2018-03-16T06:05:35.326Z,90.29
2018-03-16T06:06:35.315Z,90.01
2018-03-16T06:07:35.305Z,88.78
2018-03-16T06:08:35.328Z,87.68
2018-03-16T06:09:35.287Z,86.16
2018-03-16T06:10:35.304Z,85.31
2018-03-16T06:11:35.323Z,84.55
2018-03-16T06:12:35.277Z,83.85
2018-03-16T06:13:35.253Z,83.75
2018-03-16T06:14:35.245Z,83.47
2018-03-16T06:15:35.237Z,83.18
2018-03-16T06:16:35.226Z,83.09
2018-03-16T06:17:35.221Z,83.18
2018-03-16T06:18:35.215Z,83.37
2018-03-16T06:19:35.200Z,83.18
2018-03-16T06:20:35.188Z,83.18
2018-03-16T06:21:35.186Z,83.18
2018-03-16T06:22:35.177Z,82.81
2018-03-16T06:23:35.171Z,82.62
2018-03-16T06:24:35.165Z,82.90
2018-03-16T06:25:35.155Z,83.09
2018-03-16T06:26:35.150Z,82.90
2018-03-16T06:27:35.140Z,82.71
2018-03-16T06:28:35.858Z,82.47
2018-03-16T06:29:35.127Z,82.66
2018-03-16T06:30:35.115Z,82.37
2018-03-16T06:31:35.131Z,82.47
2018-03-16T06:32:35.097Z,82.28
2018-03-16T06:33:35.111Z,81.99
2018-03-16T06:34:35.093Z,82.51
2018-03-16T06:35:35.102Z,84.78
2018-03-16T06:36:35.067Z,85.11
2018-03-16T06:37:35.068Z,85.68
2018-03-16T06:38:35.067Z,83.20
2018-03-16T06:39:35.050Z,81.84
2018-03-16T06:40:35.106Z,82.59
2018-03-16T06:41:35.036Z,83.45
2018-03-16T06:42:35.041Z,84.29
2018-03-16T06:43:35.025Z,83.82
2018-03-16T06:44:35.094Z,83.15
2018-03-16T06:45:35.017Z,84.29
2018-03-16T06:46:35.032Z,84.52
2018-03-16T06:47:35.016Z,84.76
2018-03-16T06:48:35.002Z,84.33
2018-03-16T06:49:34.996Z,82.81
2018-03-16T06:50:34.994Z,83.72
2018-03-16T06:51:34.990Z,84.01
2018-03-16T06:52:34.983Z,83.68
2018-03-16T06:53:34.977Z,83.30
2018-03-16T06:54:34.977Z,83.30
2018-03-16T06:55:34.972Z,83.54
2018-03-16T06:56:35.005Z,83.54
2018-03-16T06:57:34.963Z,82.88
2018-03-16T06:58:34.952Z,82.21
2018-03-16T06:59:34.988Z,83.26
2018-03-16T07:00:34.950Z,83.45
2018-03-16T07:01:34.949Z,83.16
2018-03-16T07:02:34.947Z,83.36
2018-03-16T07:03:34.983Z,82.84
2018-03-16T07:04:34.936Z,82.88
2018-03-16T07:05:34.954Z,83.40
2018-03-16T07:06:34.958Z,82.74
2018-03-16T07:07:34.945Z,83.31
2018-03-16T07:08:34.978Z,82.55
2018-03-16T07:09:34.994Z,82.84
2018-03-16T07:10:35.875Z,82.84
2018-03-16T07:11:34.912Z,82.74
2018-03-16T07:12:34.919Z,82.46
2018-03-16T07:13:34.898Z,82.65
2018-03-16T07:14:34.903Z,82.65
2018-03-16T07:15:34.884Z,82.74
2018-03-16T07:16:34.872Z,82.55
2018-03-16T07:17:34.873Z,82.74
2018-03-16T07:18:34.878Z,82.36
2018-03-16T07:19:34.867Z,82.74
2018-03-16T07:20:34.881Z,82.36
2018-03-16T07:21:34.893Z,83.59
2018-03-16T07:22:34.860Z,82.93
2018-03-16T07:23:34.884Z,82.84
2018-03-16T07:24:34.868Z,82.55
2018-03-16T07:25:34.830Z,82.55
2018-03-16T07:26:34.829Z,82.27
2018-03-16T07:27:34.824Z,82.55
2018-03-16T07:28:34.818Z,82.74
2018-03-16T07:29:34.823Z,83.22
2018-03-16T07:30:34.806Z,82.74
2018-03-16T07:31:34.799Z,82.36
2018-03-16T07:32:34.792Z,82.88
2018-03-16T07:33:34.792Z,83.40
2018-03-16T07:34:34.787Z,82.65
2018-03-16T07:35:34.792Z,83.12
2018-03-16T07:36:34.771Z,82.84
2018-03-16T07:37:34.767Z,82.40
2018-03-16T07:38:34.792Z,82.97
2018-03-16T07:39:34.761Z,82.97
2018-03-16T07:40:34.767Z,82.69
2018-03-16T07:41:34.748Z,83.26
2018-03-16T07:42:34.752Z,83.36
2018-03-16T07:43:34.737Z,83.73
2018-03-16T07:44:34.731Z,82.78
2018-03-16T07:45:34.727Z,82.78
2018-03-16T07:46:34.722Z,83.87
2018-03-16T07:47:34.733Z,83.59
2018-03-16T07:48:34.716Z,83.49
2018-03-16T07:49:34.710Z,83.39
2018-03-16T07:50:34.707Z,83.83
2018-03-16T07:51:34.735Z,82.40
2018-03-16T07:52:34.690Z,83.26
2018-03-16T07:53:34.699Z,83.30
2018-03-16T07:54:34.692Z,83.68
2018-03-16T07:55:34.678Z,83.11
2018-03-16T07:56:34.676Z,82.92
2018-03-16T07:57:34.677Z,83.97
2018-03-16T07:58:34.679Z,83.59
2018-03-16T07:59:34.677Z,83.39
2018-03-16T08:00:34.662Z,83.39
2018-03-16T08:01:34.661Z,83.25
2018-03-16T08:02:34.656Z,83.91
2018-03-16T08:03:34.720Z,83.44
2018-03-16T08:04:34.667Z,82.77
2018-03-16T08:05:34.648Z,83.34
2018-03-16T08:06:34.646Z,83.82
2018-03-16T08:07:34.640Z,83.82
2018-03-16T08:08:34.647Z,83.86
2018-03-16T08:09:34.635Z,83.48
2018-03-16T08:10:34.645Z,83.29
2018-03-16T08:11:34.633Z,84.33
2018-03-16T08:12:34.686Z,83.19
2018-03-16T08:13:34.631Z,83.95
2018-03-16T08:14:34.622Z,83.10
2018-03-16T08:15:34.620Z,83.10
2018-03-16T08:16:34.613Z,83.58
2018-03-16T08:17:34.610Z,83.95
2018-03-16T08:18:34.627Z,83.58
2018-03-16T08:19:34.613Z,83.42
2018-03-16T08:20:34.623Z,83.00
2018-03-16T08:21:34.591Z,83.10
2018-03-16T08:22:34.599Z,82.34
2018-03-16T08:23:34.595Z,83.58
2018-03-16T08:24:34.599Z,82.86
2018-03-16T08:25:34.591Z,82.99
2018-03-16T08:26:34.591Z,83.75
2018-03-16T08:27:34.586Z,83.42
2018-03-16T08:28:34.583Z,83.37
2018-03-16T08:29:34.586Z,83.47
2018-03-16T08:30:34.582Z,83.61
2018-03-16T08:31:34.576Z,83.41
2018-03-16T08:32:34.597Z,82.21
2018-03-16T08:33:34.580Z,82.31
2018-03-16T08:34:34.573Z,82.92
2018-03-16T08:35:34.575Z,82.83
2018-03-16T08:36:34.574Z,80.68
2018-03-16T08:37:34.582Z,82.24
2018-03-16T08:38:34.598Z,80.38
2018-03-16T08:39:34.582Z,80.41
2018-03-16T08:40:34.600Z,79.75
2018-03-16T08:41:34.578Z,78.99
2018-03-16T08:42:34.613Z,78.51
2018-03-16T08:43:34.586Z,78.97
2018-03-16T08:44:34.588Z,77.25
2018-03-16T08:45:34.591Z,77.99
2018-03-16T08:46:34.600Z,74.84
2018-03-16T08:47:34.601Z,73.63
2018-03-16T08:48:34.609Z,71.52
2018-03-16T08:49:34.614Z,69.42
2018-03-16T08:50:34.620Z,68.05
2018-03-16T08:51:34.630Z,66.39
2018-03-16T08:52:34.637Z,64.43
2018-03-16T08:53:34.645Z,66.48
2018-03-16T08:54:34.681Z,68.07
2018-03-16T08:55:34.668Z,71.83
2018-03-16T08:56:34.676Z,74.38
2018-03-16T08:57:34.690Z,75.10
2018-03-16T08:58:34.707Z,75.64
2018-03-16T08:59:34.700Z,69.87
2018-03-16T09:00:34.719Z,66.89
2018-03-16T09:01:34.731Z,69.48
2018-03-16T09:02:34.736Z,72.41
2018-03-16T09:03:34.798Z,73.43
2018-03-16T09:04:34.756Z,75.05
2018-03-16T09:05:34.767Z,74.90
2018-03-16T09:06:34.787Z,71.81
2018-03-16T09:07:34.785Z,69.17
2018-03-16T09:08:34.831Z,69.26
2018-03-16T09:09:34.804Z,68.97
2018-03-16T09:10:34.844Z,70.91
2018-03-16T09:11:34.813Z,71.61
2018-03-16T09:12:34.894Z,73.77
2018-03-16T09:13:34.830Z,75.83
2018-03-16T09:14:34.848Z,76.56
2018-03-16T09:15:34.853Z,77.61
2018-03-16T09:16:34.860Z,78.37
2018-03-16T09:17:34.858Z,78.33
2018-03-16T09:18:34.877Z,79.19
2018-03-16T09:19:34.879Z,79.90
2018-03-16T09:20:34.886Z,78.94
2018-03-16T09:21:34.892Z,79.23
2018-03-16T09:22:34.898Z,79.23
2018-03-16T09:23:34.901Z,79.04
2018-03-16T09:24:34.906Z,78.56
2018-03-16T09:25:34.971Z,78.91
2018-03-16T09:26:34.918Z,78.56
2018-03-16T09:27:34.924Z,78.41
2018-03-16T09:28:34.933Z,77.55
2018-03-16T09:29:34.932Z,75.85
2018-03-16T09:30:34.939Z,74.90
2018-03-16T09:31:34.939Z,73.38
2018-03-16T09:32:34.959Z,66.06
2018-03-16T09:33:34.966Z,62.93
2018-03-16T09:34:34.976Z,60.75
2018-03-16T09:35:34.965Z,58.15
2018-03-16T09:36:34.975Z,54.79
2018-03-16T09:37:34.987Z,54.65
2018-03-16T09:38:35.002Z,52.99
2018-03-16T09:39:34.998Z,53.97
2018-03-16T09:40:35.042Z,57.37
2018-03-16T09:41:35.021Z,61.15
2018-03-16T09:42:35.031Z,62.77
2018-03-16T09:43:35.039Z,62.01
2018-03-16T09:44:35.049Z,61.94
2018-03-16T09:45:35.060Z,62.62
2018-03-16T09:46:35.063Z,62.77
2018-03-16T09:47:35.072Z,64.47
2018-03-16T09:48:35.089Z,66.58
2018-03-16T09:49:35.099Z,66.58
2018-03-16T09:50:35.133Z,67.50
2018-03-16T09:51:35.119Z,67.79
2018-03-16T09:52:35.120Z,68.52
2018-03-16T09:53:35.133Z,69.92
2018-03-16T09:54:35.139Z,70.78
2018-03-16T09:55:35.145Z,71.73
2018-03-16T09:56:35.156Z,71.70
2018-03-16T09:57:35.164Z,72.85
2018-03-16T09:58:35.223Z,74.09
2018-03-16T09:59:35.175Z,73.80
2018-03-16T10:00:35.173Z,74.15
2018-03-16T10:01:35.186Z,75.01
2018-03-16T10:02:35.189Z,76.03
2018-03-16T10:03:35.261Z,76.40
2018-03-16T10:04:35.199Z,76.03
2018-03-16T10:05:35.207Z,76.37
2018-03-16T10:06:35.213Z,77.03
2018-03-16T10:07:35.213Z,78.13
2018-03-16T10:08:35.238Z,77.42
2018-03-16T10:09:35.239Z,77.13
2018-03-16T10:10:35.266Z,77.94
2018-03-16T10:11:35.233Z,78.09
2018-03-16T10:12:35.248Z,77.51
2018-03-16T10:13:35.239Z,78.18
2018-03-16T10:14:35.240Z,78.28
2018-03-16T10:15:35.249Z,78.47
2018-03-16T10:16:35.248Z,78.47
2018-03-16T10:17:35.248Z,77.89
2018-03-16T10:18:35.265Z,77.89
2018-03-16T10:19:35.258Z,77.99
2018-03-16T10:20:35.263Z,78.37
2018-03-16T10:21:35.260Z,78.09
2018-03-16T10:22:35.280Z,77.51
2018-03-16T10:23:35.276Z,77.32
2018-03-16T10:24:35.269Z,77.84
2018-03-16T10:25:35.293Z,78.03
2018-03-16T10:26:35.274Z,77.08
2018-03-16T10:27:35.277Z,76.98
2018-03-16T10:28:35.294Z,76.31
2018-03-16T10:29:35.278Z,76.31
2018-03-16T10:30:35.281Z,75.93
2018-03-16T10:31:35.284Z,76.12
2018-03-16T10:32:35.286Z,76.06
2018-03-16T10:33:35.288Z,75.83
2018-03-16T10:34:35.291Z,75.30
2018-03-16T10:35:35.300Z,75.10
2018-03-16T10:36:35.294Z,73.86
2018-03-16T10:37:35.289Z,74.24
2018-03-16T10:38:35.311Z,74.53
2018-03-16T10:39:35.306Z,74.82
2018-03-16T10:40:35.324Z,74.82
2018-03-16T10:41:35.309Z,75.20
2018-03-16T10:42:35.320Z,75.91
2018-03-16T10:43:35.341Z,74.28
2018-03-16T10:44:35.318Z,73.71
2018-03-16T10:45:35.319Z,73.55
2018-03-16T10:46:35.322Z,71.01
2018-03-16T10:47:35.324Z,69.89
2018-03-16T10:48:35.328Z,68.27
2018-03-16T10:49:35.331Z,66.83
2018-03-16T10:50:35.331Z,67.85
2018-03-16T10:51:35.344Z,66.19
2018-03-16T10:52:35.346Z,68.77
2018-03-16T10:53:35.350Z,71.16
2018-03-16T10:54:35.356Z,69.50
2018-03-16T10:55:35.364Z,69.44
2018-03-16T10:56:35.371Z,70.17
2018-03-16T10:57:35.368Z,70.53
2018-03-16T10:58:35.930Z,67.63
2018-03-16T10:59:35.401Z,60.21
2018-03-16T11:00:35.427Z,56.37
2018-03-16T11:01:35.394Z,56.60
2018-03-16T11:02:35.403Z,58.94
2018-03-16T11:03:35.453Z,60.80
2018-03-16T11:04:35.411Z,63.00
2018-03-16T11:05:35.422Z,64.05
2018-03-16T11:06:35.425Z,62.96
2018-03-16T11:07:35.434Z,60.05
2018-03-16T11:08:35.460Z,56.59
2018-03-16T11:09:35.443Z,57.56
2018-03-16T11:10:35.476Z,60.99
2018-03-16T11:11:35.457Z,59.77
2018-03-16T11:12:35.507Z,56.18
2018-03-16T11:13:35.476Z,54.53
2018-03-16T11:14:35.478Z,52.20
2018-03-16T11:15:35.491Z,50.01
2018-03-16T11:16:35.496Z,49.22
2018-03-16T11:17:35.513Z,48.97
2018-03-16T11:18:35.522Z,49.05
2018-03-16T11:19:35.535Z,49.22
2018-03-16T11:20:35.551Z,49.91
2018-03-16T11:21:35.555Z,49.36
2018-03-16T11:22:35.584Z,49.46
2018-03-16T11:23:35.586Z,49.99
2018-03-16T11:24:35.588Z,48.83
2018-03-16T11:25:35.606Z,47.56
2018-03-16T11:26:35.618Z,45.68
2018-03-16T11:27:35.631Z,48.25
2018-03-16T11:28:35.641Z,51.83
2018-03-16T11:29:35.660Z,50.81
2018-03-16T11:30:35.674Z,49.96
2018-03-16T11:31:35.681Z,47.24
2018-03-16T11:32:35.713Z,46.20
2018-03-16T11:33:35.707Z,43.41
2018-03-16T11:34:35.722Z,45.77
2018-03-16T11:35:35.736Z,45.36
2018-03-16T11:36:35.745Z,46.67
2018-03-16T11:37:35.757Z,51.42
2018-03-16T11:38:35.789Z,55.55
2018-03-16T11:39:35.788Z,54.35
2018-03-16T11:40:35.822Z,52.45
2018-03-16T11:41:35.817Z,55.35
2018-03-16T11:42:35.840Z,57.31
2018-03-16T11:43:35.843Z,58.94
2018-03-16T11:44:35.852Z,58.46
2018-03-16T11:45:35.868Z,59.74
2018-03-16T11:46:35.881Z,57.23
2018-03-16T11:47:35.897Z,54.35
2018-03-16T11:48:35.912Z,55.38
2018-03-16T11:49:35.920Z,54.91
2018-03-16T11:50:35.925Z,59.97
2018-03-16T11:51:35.944Z,60.44
2018-03-16T11:52:35.954Z,61.15
2018-03-16T11:53:35.975Z,62.49
2018-03-16T11:54:35.986Z,63.32
2018-03-16T11:55:36.000Z,62.84
2018-03-16T11:56:35.997Z,65.14
2018-03-16T11:57:36.020Z,61.18
2018-03-16T11:58:36.024Z,62.04
2018-03-16T11:59:36.040Z,60.77
2018-03-16T12:00:36.063Z,61.44
2018-03-16T12:01:36.036Z,62.49
2018-03-16T12:02:36.050Z,58.62
2018-03-16T12:03:36.057Z,59.08
2018-03-16T12:04:36.069Z,57.70
2018-03-16T12:05:36.107Z,53.27
2018-03-16T12:06:36.075Z,52.67
2018-03-16T12:07:36.085Z,52.50
2018-03-16T12:08:36.107Z,53.39
2018-03-16T12:09:36.099Z,53.11
2018-03-16T12:10:36.117Z,52.86
2018-03-16T12:11:36.112Z,54.97
2018-03-16T12:12:36.130Z,53.82
2018-03-16T12:13:36.132Z,54.58
2018-03-16T12:14:36.136Z,54.78
2018-03-16T12:15:36.142Z,55.78
2018-03-16T12:16:36.152Z,55.87
2018-03-16T12:17:36.154Z,55.47
2018-03-16T12:18:36.174Z,54.45
2018-03-16T12:19:36.171Z,54.58
2018-03-16T12:20:36.187Z,53.23
2018-03-16T12:21:36.203Z,49.99
2018-03-16T12:22:36.202Z,50.56
2018-03-16T12:23:36.215Z,47.75
2018-03-16T12:24:36.234Z,47.63
2018-03-16T12:25:36.231Z,48.74
2018-03-16T12:26:36.243Z,51.28
2018-03-16T12:27:36.247Z,54.04
2018-03-16T12:28:49.573Z,56.02
2018-03-16T12:29:36.270Z,57.79
2018-03-16T12:30:36.277Z,60.57
2018-03-16T12:31:36.286Z,61.79
2018-03-16T12:32:36.298Z,61.88
2018-03-16T12:33:36.304Z,62.46
2018-03-16T12:34:36.312Z,61.21
2018-03-16T12:35:36.317Z,61.11
2018-03-16T12:36:36.328Z,60.25
2018-03-16T12:37:36.333Z,61.21
2018-03-16T12:38:36.393Z,62.84
2018-03-16T12:39:36.343Z,63.51
2018-03-16T12:40:36.406Z,63.48
2018-03-16T12:41:36.359Z,62.90
2018-03-16T12:42:36.422Z,64.69
2018-03-16T12:43:36.376Z,63.06
2018-03-16T12:44:36.377Z,63.45
2018-03-16T12:45:36.390Z,64.98
2018-03-16T12:46:36.414Z,64.50
2018-03-16T12:47:36.421Z,64.50
2018-03-16T12:48:36.398Z,66.57
2018-03-16T12:49:36.422Z,68.62
2018-03-16T12:50:36.412Z,67.08
2018-03-16T12:51:42.155Z,67.08
2018-03-16T12:52:36.417Z,67.05
2018-03-16T12:53:36.424Z,68.58
2018-03-16T12:54:36.426Z,69.73
2018-03-16T12:55:36.430Z,70.56
2018-03-16T12:56:36.464Z,69.98
2018-03-16T12:57:36.438Z,70.42
2018-03-16T12:58:36.438Z,72.11
2018-03-16T12:59:36.443Z,72.49
2018-03-16T13:00:36.448Z,74.21
2018-03-16T13:01:36.444Z,75.07
2018-03-16T13:02:36.444Z,75.32
2018-03-16T13:03:36.448Z,74.98
2018-03-16T13:04:36.446Z,76.31
2018-03-16T13:05:36.442Z,76.31
2018-03-16T13:06:36.456Z,75.83
2018-03-16T13:07:36.446Z,75.93
2018-03-16T13:08:36.483Z,75.01
2018-03-16T13:09:36.445Z,74.49
2018-03-16T13:10:36.496Z,74.21
2018-03-16T13:11:36.448Z,74.59
2018-03-16T13:12:36.509Z,74.40
2018-03-16T13:13:36.444Z,74.59
2018-03-16T13:14:36.453Z,75.32
2018-03-16T13:15:36.440Z,75.22
2018-03-16T13:16:36.449Z,75.83
2018-03-16T13:17:36.444Z,75.70
2018-03-16T13:18:36.448Z,75.89
2018-03-16T13:19:36.447Z,76.71
2018-03-16T13:20:36.453Z,77.19
2018-03-16T13:21:36.443Z,77.09
2018-03-16T13:22:36.445Z,77.76
2018-03-16T13:23:36.442Z,77.67
2018-03-16T13:24:36.445Z,78.81
2018-03-16T13:25:36.444Z,77.76
2018-03-16T13:26:36.441Z,77.51
2018-03-16T13:27:36.442Z,77.51
2018-03-16T13:28:37.103Z,77.09
2018-03-16T13:29:36.445Z,77.67
2018-03-16T13:30:36.441Z,78.43
2018-03-16T13:31:36.498Z,78.14
2018-03-16T13:32:36.438Z,78.47
2018-03-16T13:33:36.441Z,79.04
2018-03-16T13:34:36.442Z,78.09
2018-03-16T13:35:36.442Z,77.51
2018-03-16T13:36:36.460Z,78.09
2018-03-16T13:37:36.449Z,78.28
2018-03-16T13:38:36.482Z,77.70
2018-03-16T13:39:36.438Z,77.00
2018-03-16T13:40:36.536Z,77.89
2018-03-16T13:41:36.429Z,77.61
2018-03-16T13:42:36.447Z,77.51
2018-03-16T13:43:36.424Z,78.37
2018-03-16T13:44:36.433Z,78.94
2018-03-16T13:45:36.457Z,76.71
2018-03-16T13:46:36.429Z,78.14
2018-03-16T13:47:36.430Z,79.28
2018-03-16T13:48:36.425Z,78.91
2018-03-16T13:49:36.433Z,78.67
2018-03-16T13:50:36.426Z,79.15
2018-03-16T13:51:36.425Z,78.67
2018-03-16T13:52:36.424Z,79.35
2018-03-16T13:53:36.420Z,79.53
2018-03-16T13:54:36.418Z,79.35
2018-03-16T13:55:36.420Z,78.77
2018-03-16T13:56:36.407Z,78.77
2018-03-16T13:57:36.413Z,79.63
2018-03-16T13:58:36.413Z,79.86
2018-03-16T13:59:36.411Z,79.57
2018-03-16T14:00:36.411Z,78.05
2018-03-16T14:01:36.407Z,77.13
2018-03-16T14:02:36.405Z,77.28
2018-03-16T14:03:36.402Z,77.57
2018-03-16T14:04:36.403Z,78.72